This is the latest recevied weather packets stored in our database for station/object M9XDX-WX. If no packets are shown the sender has not sent any weather packets the latest 10 day(s).
| Time | Temp. | Humidity | Pressure | Rain* | Wind** | Luminosity | Snow |
|---|---|---|---|---|---|---|---|
| 1777502538 | 11.67° C | 54% | 1021.7 hPa | 0 mm | - | 0 W/m² | - |
| 1777501340 | 11.67° C | 52% | 1021.5 hPa | 0 mm | - | 0 W/m² | - |
| 1777498803 | 12.22° C | 50% | 1021.3 hPa | 0 mm | - | 0 W/m² | - |
| 1777483803 | 17.22° C | 40% | 1019.8 hPa | 0 mm | - | 211 W/m² | - |
| 1777480803 | 17.78° C | 36% | 1019.8 hPa | 0 mm | - | 344 W/m² | - |
| 1777478403 | 17.78° C | 39% | 1020 hPa | 0 mm | - | 465 W/m² | - |
| 1777476003 | 18.33° C | 39% | 1020.1 hPa | 0 mm | - | 478 W/m² | - |
| 1777473003 | 17.78° C | 39% | 1020.6 hPa | 0 mm | - | 418 W/m² | - |
| 1777472403 | 17.78° C | 41% | 1020.7 hPa | 0 mm | - | 413 W/m² | - |
| 1777467603 | 18.33° C | 39% | 1020.9 hPa | 0 mm | - | 786 W/m² | - |
| 1777464603 | 17.78° C | 44% | 1021.6 hPa | 0 mm | - | 796 W/m² | - |
| 1777463403 | 17.22° C | 47% | 1021.8 hPa | 0 mm | - | 787 W/m² | - |
| 1777457403 | 15.56° C | 51% | 1022.1 hPa | 0 mm | - | 655 W/m² | - |
| 1777453803 | 13.33° C | 62% | 1022.2 hPa | 0 mm | - | 525 W/m² | - |
| 1777451538 | 11.67° C | 66% | 1022.6 hPa | 0 mm | - | 421 W/m² | - |
| 1777450203 | 11.11° C | 67% | 1022.7 hPa | 0 mm | - | 359 W/m² | - |
| 1777449603 | 11.11° C | 69% | 1023 hPa | 0 mm | - | 330 W/m² | - |
| 1777442537 | 7.78° C | 78% | 1023.3 hPa | 0 mm | - | 54 W/m² | - |
| 1777440003 | 6.67° C | 80% | 1023.4 hPa | 0 mm | - | 23 W/m² | - |
| 1777438203 | 6.67° C | 79% | 1023.3 hPa | 0 mm | - | 5 W/m² | - |
| 1777434003 | 6.67° C | 78% | 1023.6 hPa | 0 mm | - | 0 W/m² | - |
| 1777433403 | 6.67° C | 78% | 1023.5 hPa | 0 mm | - | 0 W/m² | - |
| 1777430403 | 6.67° C | 76% | 1023.6 hPa | 0 mm | - | 0 W/m² | - |
| 1777426803 | 7.22° C | 72% | 1024.3 hPa | 0 mm | - | 0 W/m² | - |
| 1777425003 | 7.22° C | 70% | 1024.1 hPa | 0 mm | - | 0 W/m² | - |
* Rain latest hour (hover to see other rain measurements)
** Current wind speed in m/s (hover to see current wind gust speed)